createdAt,value
2022-09-14T00:01:35.349Z,18.00
2022-09-14T00:04:05.611Z,18.00
2022-09-14T00:06:34.013Z,18.00
2022-09-14T00:09:02.612Z,18.00
2022-09-14T00:11:33.337Z,17.90
2022-09-14T00:14:02.637Z,17.90
2022-09-14T00:16:33.485Z,17.70
2022-09-14T00:19:05.562Z,17.80
2022-09-14T00:21:33.821Z,17.80
2022-09-14T00:24:01.576Z,17.80
2022-09-14T00:26:30.701Z,17.90
2022-09-14T00:29:04.188Z,17.90
2022-09-14T00:31:32.799Z,17.90
2022-09-14T00:34:02.551Z,17.80
2022-09-14T00:36:31.948Z,17.80
2022-09-14T00:39:00.605Z,17.80
2022-09-14T00:41:32.931Z,17.80
2022-09-14T00:44:03.123Z,17.80
2022-09-14T00:46:33.057Z,17.50
2022-09-14T00:49:03.100Z,17.60
2022-09-14T00:51:34.278Z,17.70
2022-09-14T00:54:03.518Z,17.80
2022-09-14T00:56:32.814Z,17.70
2022-09-14T00:59:06.491Z,17.50
2022-09-14T01:01:34.778Z,17.30
2022-09-14T01:04:03.758Z,17.30
2022-09-14T01:06:37.873Z,17.40
2022-09-14T01:09:21.388Z,17.60
2022-09-14T01:12:05.036Z,17.70
2022-09-14T01:14:41.786Z,17.50
2022-09-14T01:17:14.527Z,17.60
2022-09-14T01:20:03.584Z,17.70
2022-09-14T01:22:37.849Z,17.60
2022-09-14T01:25:15.427Z,17.40
2022-09-14T01:27:46.308Z,17.30
2022-09-14T01:30:18.040Z,17.50
2022-09-14T01:32:51.260Z,17.60
2022-09-14T01:35:24.042Z,17.60
2022-09-14T01:37:56.966Z,17.60
2022-09-14T01:40:31.211Z,17.60
2022-09-14T01:43:06.052Z,17.60
2022-09-14T01:45:38.260Z,17.60
2022-09-14T01:48:08.750Z,17.60
2022-09-14T01:50:40.973Z,17.70
2022-09-14T01:53:11.897Z,17.60
2022-09-14T01:55:43.671Z,17.50
2022-09-14T01:58:17.280Z,17.50
2022-09-14T02:00:48.084Z,17.40
2022-09-14T02:03:20.735Z,17.40
2022-09-14T02:05:57.310Z,17.50
2022-09-14T02:08:28.352Z,17.50
2022-09-14T02:10:57.146Z,17.60
2022-09-14T02:13:27.206Z,17.60
2022-09-14T02:15:55.466Z,17.60
2022-09-14T02:18:23.633Z,17.60
2022-09-14T02:20:55.500Z,17.60
2022-09-14T02:23:24.041Z,17.60
2022-09-14T02:25:52.011Z,17.60
2022-09-14T02:28:19.756Z,17.60
2022-09-14T02:30:56.157Z,17.60
2022-09-14T02:33:30.881Z,17.60
2022-09-14T02:36:05.703Z,17.60
2022-09-14T02:38:41.513Z,17.60
2022-09-14T02:41:16.749Z,17.60
2022-09-14T02:43:50.406Z,17.50
2022-09-14T02:46:27.596Z,17.50
2022-09-14T02:49:02.957Z,17.50
2022-09-14T02:51:36.098Z,17.50
2022-09-14T02:54:08.912Z,17.40
2022-09-14T02:56:37.589Z,17.40
2022-09-14T02:59:06.063Z,17.40
2022-09-14T03:01:35.321Z,17.30
2022-09-14T03:04:03.452Z,17.20
2022-09-14T03:06:31.217Z,17.30
2022-09-14T03:08:58.940Z,17.20
2022-09-14T03:11:26.830Z,17.30
2022-09-14T03:13:54.619Z,17.10
2022-09-14T03:16:22.841Z,17.20
2022-09-14T03:18:51.966Z,17.30
2022-09-14T03:21:19.830Z,17.40
2022-09-14T03:23:49.391Z,17.40
2022-09-14T03:26:19.340Z,17.40
2022-09-14T03:28:51.628Z,17.40
2022-09-14T03:31:20.312Z,17.40
2022-09-14T03:33:48.286Z,17.30
2022-09-14T03:36:19.555Z,17.40
2022-09-14T03:38:48.803Z,17.40
2022-09-14T03:41:17.321Z,17.40
2022-09-14T03:43:46.105Z,17.30
2022-09-14T03:46:15.410Z,17.30
2022-09-14T03:48:44.082Z,17.20
2022-09-14T03:51:14.014Z,17.20
2022-09-14T03:53:45.386Z,17.20
2022-09-14T03:56:16.373Z,17.30
2022-09-14T03:58:44.240Z,17.40
2022-09-14T04:01:15.372Z,17.40
2022-09-14T04:03:43.703Z,17.40
2022-09-14T04:06:11.776Z,17.40
2022-09-14T04:08:41.267Z,17.30
2022-09-14T04:11:12.320Z,17.30
2022-09-14T04:13:40.424Z,17.30
2022-09-14T04:16:08.699Z,17.30
2022-09-14T04:18:36.529Z,17.40
2022-09-14T04:21:08.577Z,17.40
2022-09-14T04:23:51.330Z,17.40
2022-09-14T04:26:27.744Z,17.40
2022-09-14T04:28:56.617Z,17.40
2022-09-14T04:31:25.202Z,17.40
2022-09-14T04:33:54.996Z,17.40
2022-09-14T04:36:25.768Z,17.40
2022-09-14T04:38:55.204Z,17.40
2022-09-14T04:41:23.857Z,17.40
2022-09-14T04:43:53.829Z,17.40
2022-09-14T04:46:23.601Z,17.40
2022-09-14T04:48:51.852Z,17.30
2022-09-14T04:51:21.865Z,17.30
2022-09-14T04:53:53.026Z,17.40
2022-09-14T04:56:22.249Z,17.40
2022-09-14T04:58:53.290Z,17.40
2022-09-14T05:01:23.004Z,17.40
2022-09-14T05:03:51.575Z,17.50
2022-09-14T05:06:21.049Z,17.50
2022-09-14T05:08:50.015Z,17.50
2022-09-14T05:11:20.412Z,17.50
2022-09-14T05:13:50.277Z,17.50
2022-09-14T05:16:21.404Z,17.50
2022-09-14T05:18:50.260Z,17.50
2022-09-14T05:21:20.053Z,17.50
2022-09-14T05:23:48.501Z,17.50
2022-09-14T05:26:16.604Z,17.40
2022-09-14T05:28:44.358Z,17.50
2022-09-14T05:31:12.997Z,17.40
2022-09-14T05:33:42.265Z,17.50
2022-09-14T05:36:10.761Z,17.50
2022-09-14T05:38:40.800Z,17.50
2022-09-14T05:41:10.991Z,17.50
2022-09-14T05:43:38.825Z,17.50
2022-09-14T05:46:10.835Z,17.50
2022-09-14T05:48:39.537Z,17.50
2022-09-14T05:51:11.294Z,17.40
2022-09-14T05:53:39.144Z,17.50
2022-09-14T05:56:09.842Z,17.50
2022-09-14T05:58:38.728Z,17.50
2022-09-14T06:01:10.865Z,17.50
2022-09-14T06:03:39.026Z,17.50
2022-09-14T06:06:09.642Z,17.50
2022-09-14T06:08:37.641Z,17.50
2022-09-14T06:11:06.237Z,17.60
2022-09-14T06:13:34.372Z,17.60
2022-09-14T06:16:05.932Z,17.60
2022-09-14T06:18:34.022Z,17.70
2022-09-14T06:21:02.094Z,17.70
2022-09-14T06:23:31.818Z,17.80
2022-09-14T06:26:01.158Z,17.90
2022-09-14T06:28:29.849Z,17.90
2022-09-14T06:30:57.850Z,17.90
2022-09-14T06:33:25.950Z,17.90
2022-09-14T06:35:57.661Z,17.90
2022-09-14T06:38:25.904Z,18.00
2022-09-14T06:40:56.875Z,18.10
2022-09-14T06:43:25.387Z,18.30
2022-09-14T06:45:58.029Z,18.30
2022-09-14T06:48:26.257Z,18.20
2022-09-14T06:50:54.012Z,18.20
2022-09-14T06:53:21.841Z,18.20
2022-09-14T06:55:49.708Z,18.20
2022-09-14T06:58:18.921Z,18.20
2022-09-14T07:00:46.710Z,18.20
2022-09-14T07:03:14.585Z,18.20
2022-09-14T07:05:42.412Z,18.40
2022-09-14T07:08:12.391Z,18.30
2022-09-14T07:10:42.940Z,18.50
2022-09-14T07:13:10.746Z,18.40
2022-09-14T07:15:39.801Z,18.70
2022-09-14T07:18:07.553Z,18.80
2022-09-14T07:20:35.500Z,18.70
2022-09-14T07:23:03.278Z,18.60
2022-09-14T07:25:31.099Z,18.50
2022-09-14T07:28:00.591Z,18.60
2022-09-14T07:30:28.717Z,18.50
2022-09-14T07:32:57.847Z,18.50
2022-09-14T07:35:25.725Z,18.70
2022-09-14T07:37:54.774Z,18.80
2022-09-14T07:40:23.714Z,19.00
2022-09-14T07:42:56.912Z,19.20
2022-09-14T07:45:25.648Z,19.30
2022-09-14T07:47:53.407Z,19.50
2022-09-14T07:50:22.661Z,19.70
2022-09-14T07:52:51.767Z,19.90
2022-09-14T07:55:20.141Z,19.70
2022-09-14T07:57:55.987Z,20.20
2022-09-14T08:00:24.250Z,20.10
2022-09-14T08:02:57.886Z,19.80
2022-09-14T08:05:27.280Z,19.80
2022-09-14T08:07:55.648Z,19.90
2022-09-14T08:10:23.843Z,20.30
2022-09-14T08:12:52.776Z,20.10
2022-09-14T08:15:23.216Z,19.80
2022-09-14T08:17:54.366Z,20.30
2022-09-14T08:20:22.181Z,20.40
2022-09-14T08:22:51.361Z,20.30
2022-09-14T08:25:19.149Z,20.20
2022-09-14T08:27:46.965Z,20.20
2022-09-14T08:30:15.141Z,20.20
2022-09-14T08:32:42.891Z,20.10
2022-09-14T08:35:10.854Z,20.00
2022-09-14T08:37:38.629Z,20.30
2022-09-14T08:40:11.815Z,20.60
2022-09-14T08:42:40.983Z,20.20
2022-09-14T08:45:12.453Z,20.40
2022-09-14T08:47:41.862Z,20.30
2022-09-14T08:50:17.113Z,21.00
2022-09-14T08:52:46.908Z,21.00
2022-09-14T08:55:34.273Z,20.70
2022-09-14T08:58:08.067Z,20.50
2022-09-14T09:00:41.992Z,20.60
2022-09-14T09:03:40.863Z,21.00
2022-09-14T09:06:16.677Z,20.90
2022-09-14T09:08:53.079Z,20.90
2022-09-14T09:11:25.176Z,21.30
2022-09-14T09:13:54.976Z,21.20
2022-09-14T09:16:25.893Z,21.30
2022-09-14T09:18:58.931Z,21.20
2022-09-14T09:21:31.540Z,21.60
2022-09-14T09:24:16.416Z,21.80
2022-09-14T09:26:45.544Z,21.10
2022-09-14T09:29:14.232Z,21.60
2022-09-14T09:31:47.379Z,21.60
2022-09-14T09:34:17.129Z,21.80
2022-09-14T09:36:48.090Z,21.60
2022-09-14T09:39:16.796Z,21.50
2022-09-14T09:41:50.321Z,21.50
2022-09-14T09:44:18.128Z,21.60
2022-09-14T09:46:51.620Z,22.10
2022-09-14T09:49:22.941Z,21.90
2022-09-14T09:51:51.836Z,21.60
2022-09-14T09:54:26.048Z,22.00
2022-09-14T09:56:58.125Z,21.90
2022-09-14T09:59:32.456Z,22.20
2022-09-14T10:02:22.456Z,22.80
2022-09-14T10:04:59.250Z,22.30
2022-09-14T10:07:28.502Z,22.70
2022-09-14T10:10:05.889Z,23.10
2022-09-14T10:12:35.686Z,23.60
2022-09-14T10:15:17.581Z,22.80
2022-09-14T10:17:56.629Z,22.60
2022-09-14T10:20:26.461Z,22.50
2022-09-14T10:22:54.597Z,22.50
2022-09-14T10:25:24.739Z,23.40
2022-09-14T10:28:00.981Z,24.00
2022-09-14T10:30:34.053Z,23.80
2022-09-14T10:33:03.506Z,23.60
2022-09-14T10:35:43.264Z,23.20
2022-09-14T10:38:31.752Z,22.80
2022-09-14T10:41:09.932Z,22.80
2022-09-14T10:43:57.342Z,22.90
2022-09-14T10:46:31.590Z,23.10
2022-09-14T10:49:15.769Z,22.90
2022-09-14T10:51:53.189Z,22.70
2022-09-14T10:54:38.918Z,22.90
2022-09-14T10:57:15.996Z,23.00
2022-09-14T10:59:53.745Z,23.30
2022-09-14T11:03:02.810Z,23.50
2022-09-14T11:05:35.296Z,23.80
2022-09-14T11:08:13.238Z,23.90
2022-09-14T11:10:52.610Z,24.00
2022-09-14T11:13:40.303Z,23.60
2022-09-14T11:16:24.156Z,23.50
2022-09-14T11:19:02.710Z,23.80
2022-09-14T11:21:39.377Z,23.90
2022-09-14T11:24:16.620Z,24.10
2022-09-14T11:26:48.741Z,24.30
2022-09-14T11:29:23.835Z,24.20
2022-09-14T11:32:17.252Z,24.10
2022-09-14T11:34:54.534Z,24.10
2022-09-14T11:37:28.726Z,24.50
2022-09-14T11:40:04.276Z,24.60
2022-09-14T11:42:36.066Z,24.50
2022-09-14T11:45:07.709Z,24.20
2022-09-14T11:47:42.349Z,23.90
2022-09-14T11:50:20.113Z,24.20
2022-09-14T11:52:49.477Z,24.10
2022-09-14T11:55:19.324Z,24.00
2022-09-14T11:57:49.178Z,23.90
2022-09-14T12:00:44.954Z,23.90
2022-09-14T12:03:19.300Z,24.00
2022-09-14T12:05:48.321Z,24.00
2022-09-14T12:08:38.186Z,24.20
2022-09-14T12:11:26.557Z,24.30
2022-09-14T12:14:31.021Z,24.60
2022-09-14T12:17:22.863Z,24.40
2022-09-14T12:20:20.412Z,24.30
2022-09-14T12:22:50.496Z,24.40
2022-09-14T12:25:22.683Z,24.40
2022-09-14T12:27:51.051Z,24.40
2022-09-14T12:31:09.087Z,24.40
2022-09-14T12:33:46.034Z,24.30
2022-09-14T12:36:54.720Z,24.40
2022-09-14T12:39:25.341Z,24.30
2022-09-14T12:42:25.949Z,24.30
2022-09-14T12:44:53.987Z,24.30
2022-09-14T12:47:58.617Z,24.40
2022-09-14T12:50:32.196Z,24.50
2022-09-14T12:53:22.077Z,24.40
2022-09-14T12:56:13.557Z,24.40
2022-09-14T12:58:56.530Z,24.30
2022-09-14T13:01:34.141Z,24.30
2022-09-14T13:04:04.290Z,24.40
2022-09-14T13:06:40.407Z,24.20
2022-09-14T13:09:18.583Z,24.10
2022-09-14T13:11:49.080Z,24.00
2022-09-14T13:14:19.451Z,23.90
2022-09-14T13:16:50.402Z,24.00
2022-09-14T13:19:24.913Z,24.00
2022-09-14T13:21:54.481Z,24.00
2022-09-14T13:24:31.015Z,24.00
2022-09-14T13:27:00.645Z,24.00
2022-09-14T13:29:28.993Z,24.00
2022-09-14T13:32:03.343Z,24.10
2022-09-14T13:34:35.851Z,24.00
2022-09-14T13:37:05.272Z,24.00
2022-09-14T13:39:36.533Z,24.00
2022-09-14T13:42:04.955Z,24.00
2022-09-14T13:44:35.557Z,24.00
2022-09-14T13:47:05.545Z,24.00
2022-09-14T13:49:36.320Z,24.10
2022-09-14T13:52:57.081Z,24.00
2022-09-14T13:55:24.391Z,24.00
2022-09-14T13:58:13.505Z,23.90
2022-09-14T14:00:54.198Z,23.90
2022-09-14T14:03:34.050Z,23.80
2022-09-14T14:06:26.609Z,23.80
2022-09-14T14:08:58.422Z,23.80
2022-09-14T14:11:37.432Z,23.70
2022-09-14T14:14:21.350Z,23.60
2022-09-14T14:17:24.332Z,23.50
2022-09-14T14:19:53.501Z,23.50
2022-09-14T14:22:24.618Z,23.50
2022-09-14T14:27:44.344Z,23.50
2022-09-14T14:30:15.652Z,23.40
2022-09-14T14:32:43.560Z,23.40
2022-09-14T14:35:16.802Z,23.40
2022-09-14T14:37:44.649Z,23.40
2022-09-14T14:40:13.709Z,23.40
2022-09-14T14:42:43.698Z,23.50
2022-09-14T14:45:19.070Z,23.50
2022-09-14T14:47:47.202Z,23.40
2022-09-14T14:50:16.881Z,23.30
2022-09-14T14:52:44.815Z,23.30
2022-09-14T14:55:12.666Z,23.30
2022-09-14T14:57:41.878Z,23.30
2022-09-14T15:00:15.539Z,23.30
2022-09-14T15:02:43.361Z,23.30
2022-09-14T15:05:11.269Z,23.30
2022-09-14T15:07:39.622Z,23.20
2022-09-14T15:10:08.839Z,23.10
2022-09-14T15:12:36.634Z,23.10
2022-09-14T15:15:06.799Z,23.00
2022-09-14T15:17:34.518Z,22.90
2022-09-14T15:20:02.617Z,22.80
2022-09-14T15:22:30.360Z,22.70
2022-09-14T15:24:58.110Z,22.40
2022-09-14T15:27:25.913Z,22.20
2022-09-14T15:29:53.725Z,22.40
2022-09-14T15:32:22.897Z,22.20
2022-09-14T15:34:50.793Z,22.30
2022-09-14T15:37:18.538Z,22.00
2022-09-14T15:39:50.102Z,22.10
2022-09-14T15:42:18.342Z,21.90
2022-09-14T15:44:46.260Z,22.10
2022-09-14T15:47:15.535Z,22.30
2022-09-14T15:49:44.827Z,22.30
2022-09-14T15:52:13.118Z,22.20
2022-09-14T15:54:40.841Z,22.20
2022-09-14T15:57:12.482Z,22.10
2022-09-14T15:59:40.676Z,21.40
2022-09-14T16:02:08.620Z,21.30
2022-09-14T16:04:37.488Z,21.70
2022-09-14T16:07:09.731Z,21.70
2022-09-14T16:09:38.826Z,21.50
2022-09-14T16:12:07.358Z,21.20
2022-09-14T16:14:35.168Z,21.30
2022-09-14T16:17:03.007Z,21.30
2022-09-14T16:19:30.949Z,21.20
2022-09-14T16:21:58.973Z,21.20
2022-09-14T16:24:28.519Z,21.40
2022-09-14T16:26:57.738Z,21.50
2022-09-14T16:29:26.348Z,21.60
2022-09-14T16:31:54.753Z,21.60
2022-09-14T16:34:25.168Z,21.70
2022-09-14T16:36:53.282Z,21.70
2022-09-14T16:39:23.429Z,21.70
2022-09-14T16:41:53.965Z,21.60
2022-09-14T16:44:24.195Z,21.60
2022-09-14T16:46:52.529Z,21.70
2022-09-14T16:49:25.017Z,21.70
2022-09-14T16:51:55.746Z,21.70
2022-09-14T16:54:25.905Z,21.70
2022-09-14T16:56:56.885Z,21.70
2022-09-14T16:59:25.527Z,21.70
2022-09-14T17:01:55.292Z,21.60
2022-09-14T17:04:24.622Z,21.70
2022-09-14T17:06:54.990Z,21.70
2022-09-14T17:09:25.170Z,21.60
2022-09-14T17:11:55.069Z,21.70
2022-09-14T17:14:25.269Z,21.70
2022-09-14T17:16:53.128Z,21.60
2022-09-14T17:19:21.286Z,21.60
2022-09-14T17:21:49.987Z,21.60
2022-09-14T17:24:19.198Z,21.50
2022-09-14T17:26:47.663Z,21.50
2022-09-14T17:29:17.277Z,21.50
2022-09-14T17:31:46.264Z,21.40
2022-09-14T17:34:16.768Z,21.30
2022-09-14T17:36:44.806Z,21.40
2022-09-14T17:39:13.861Z,21.30
2022-09-14T17:41:43.601Z,21.40
2022-09-14T17:44:13.485Z,21.30
2022-09-14T17:46:51.085Z,21.30
2022-09-14T17:49:20.532Z,21.30
2022-09-14T17:51:49.062Z,21.40
2022-09-14T17:54:17.866Z,21.30
2022-09-14T17:56:45.823Z,21.30
2022-09-14T17:59:15.130Z,21.20
2022-09-14T18:01:47.105Z,21.20
2022-09-14T18:04:16.085Z,21.20
2022-09-14T18:06:45.188Z,21.20
2022-09-14T18:09:16.341Z,21.10
2022-09-14T18:11:44.570Z,21.10
2022-09-14T18:14:14.188Z,21.10
2022-09-14T18:16:44.417Z,21.10
2022-09-14T18:19:12.987Z,21.00
2022-09-14T18:21:41.293Z,21.00
2022-09-14T18:24:10.932Z,20.90
2022-09-14T18:26:38.958Z,20.80
2022-09-14T18:29:06.943Z,20.80
2022-09-14T18:31:34.798Z,21.00
2022-09-14T18:34:03.936Z,20.90
2022-09-14T18:36:32.421Z,20.90
2022-09-14T18:39:00.231Z,20.90
2022-09-14T18:41:29.501Z,20.80
2022-09-14T18:43:57.261Z,20.80
2022-09-14T18:46:28.107Z,20.90
2022-09-14T18:48:57.492Z,20.80
2022-09-14T18:51:27.764Z,20.80
2022-09-14T18:53:59.869Z,20.80
2022-09-14T18:56:29.102Z,20.70
2022-09-14T18:58:57.639Z,20.70
2022-09-14T19:01:26.067Z,20.60
2022-09-14T19:03:55.880Z,20.50
2022-09-14T19:06:23.986Z,20.50
2022-09-14T19:08:53.191Z,20.50
2022-09-14T19:11:23.322Z,20.50
2022-09-14T19:13:56.608Z,20.50
2022-09-14T19:16:24.584Z,20.50
2022-09-14T19:18:52.656Z,20.60
2022-09-14T19:21:23.938Z,20.50
2022-09-14T19:24:00.260Z,20.50
2022-09-14T19:26:30.636Z,20.50
2022-09-14T19:29:00.864Z,20.30
2022-09-14T19:31:30.443Z,20.20
2022-09-14T19:33:58.621Z,20.10
2022-09-14T19:36:27.295Z,20.00
2022-09-14T19:38:58.000Z,20.10
2022-09-14T19:41:26.063Z,20.00
2022-09-14T19:43:53.928Z,20.10
2022-09-14T19:46:24.201Z,20.10
2022-09-14T19:48:53.009Z,20.00
2022-09-14T19:51:22.985Z,20.00
2022-09-14T19:53:52.753Z,20.00
2022-09-14T19:56:26.302Z,20.00
2022-09-14T19:58:55.926Z,20.00
2022-09-14T20:01:25.399Z,20.00
2022-09-14T20:03:53.759Z,19.90
2022-09-14T20:06:25.456Z,19.90
2022-09-14T20:08:54.611Z,20.00
2022-09-14T20:11:25.860Z,19.90
2022-09-14T20:13:55.076Z,19.80
2022-09-14T20:16:27.798Z,19.80
2022-09-14T20:18:56.771Z,19.80
2022-09-14T20:21:25.809Z,19.70
2022-09-14T20:24:15.236Z,19.70
2022-09-14T20:26:45.747Z,19.60
2022-09-14T20:29:13.501Z,19.60
2022-09-14T20:31:41.286Z,19.60
2022-09-14T20:34:09.265Z,19.70
2022-09-14T20:36:37.177Z,19.60
2022-09-14T20:39:05.903Z,19.50
2022-09-14T20:41:35.634Z,19.50
2022-09-14T20:44:05.691Z,19.50
2022-09-14T20:46:35.979Z,19.40
2022-09-14T20:49:05.404Z,19.40
2022-09-14T20:51:33.285Z,19.40
2022-09-14T20:54:01.135Z,19.30
2022-09-14T20:56:31.305Z,19.30
2022-09-14T20:59:06.999Z,19.30
2022-09-14T21:01:37.680Z,19.20
2022-09-14T21:04:15.280Z,19.30
2022-09-14T21:06:46.251Z,19.30
2022-09-14T21:09:15.543Z,19.30
2022-09-14T21:11:45.586Z,19.30
2022-09-14T21:14:15.599Z,19.20
2022-09-14T21:16:45.960Z,19.20
2022-09-14T21:19:16.641Z,19.10
2022-09-14T21:21:44.595Z,19.10
2022-09-14T21:24:13.811Z,19.10
2022-09-14T21:26:42.954Z,19.00
2022-09-14T21:29:15.622Z,19.00
2022-09-14T21:31:43.918Z,19.10
2022-09-14T21:34:12.663Z,19.10
2022-09-14T21:36:43.080Z,19.20
2022-09-14T21:39:13.065Z,19.20
2022-09-14T21:41:42.520Z,19.20
2022-09-14T21:44:10.355Z,19.10
2022-09-14T21:46:39.516Z,19.10
2022-09-14T21:49:07.354Z,19.10
2022-09-14T21:51:37.304Z,19.10
2022-09-14T21:54:07.231Z,19.10
2022-09-14T21:56:36.776Z,19.00
2022-09-14T21:59:07.646Z,19.10
2022-09-14T22:01:35.629Z,19.10
2022-09-14T22:04:06.388Z,19.10
2022-09-14T22:06:34.997Z,19.00
2022-09-14T22:09:03.525Z,19.00
2022-09-14T22:11:33.285Z,19.10
2022-09-14T22:14:03.462Z,19.00
2022-09-14T22:16:34.411Z,19.00
2022-09-14T22:19:06.189Z,19.00
2022-09-14T22:21:36.429Z,19.00
2022-09-14T22:24:08.658Z,19.00
2022-09-14T22:26:36.591Z,19.00
2022-09-14T22:29:05.330Z,19.00
2022-09-14T22:31:33.757Z,18.90
2022-09-14T22:34:01.756Z,19.00
2022-09-14T22:36:30.880Z,19.00
2022-09-14T22:39:00.199Z,18.90
2022-09-14T22:41:29.211Z,18.90
2022-09-14T22:43:57.753Z,18.90
2022-09-14T22:46:26.439Z,18.90
2022-09-14T22:48:54.659Z,18.90
2022-09-14T22:51:24.464Z,18.90
2022-09-14T22:53:54.349Z,18.90
2022-09-14T22:56:24.036Z,18.90
2022-09-14T23:01:30.609Z,18.90
2022-09-14T23:04:01.141Z,18.90
2022-09-14T23:06:29.920Z,18.90
2022-09-14T23:09:00.280Z,18.80
2022-09-14T23:11:28.590Z,18.90
2022-09-14T23:13:57.641Z,18.80
2022-09-14T23:16:27.425Z,18.80
2022-09-14T23:18:56.699Z,18.80
2022-09-14T23:21:24.783Z,18.80
2022-09-14T23:23:53.782Z,18.80
2022-09-14T23:26:24.081Z,18.80
2022-09-14T23:28:52.676Z,18.80
2022-09-14T23:31:21.051Z,18.80
2022-09-14T23:33:52.709Z,18.70
2022-09-14T23:36:22.049Z,18.70
2022-09-14T23:38:50.331Z,18.70
2022-09-14T23:41:19.243Z,18.60
2022-09-14T23:43:49.017Z,18.70
2022-09-14T23:46:17.102Z,18.70
2022-09-14T23:48:45.064Z,18.70
2022-09-14T23:51:14.007Z,18.60
2022-09-14T23:53:43.039Z,18.70
2022-09-14T23:56:11.232Z,18.60
2022-09-14T23:58:39.714Z,18.60
